createdAt,value
2019-04-03T00:01:37.280Z,6.43
2019-04-03T00:04:26.925Z,6.43
2019-04-03T00:07:17.364Z,5.90
2019-04-03T00:10:08.896Z,5.63
2019-04-03T00:13:00.021Z,5.80
2019-04-03T00:15:49.984Z,6.50
2019-04-03T00:18:39.621Z,6.20
2019-04-03T00:21:29.157Z,5.70
2019-04-03T00:24:19.199Z,5.83
2019-04-03T00:27:09.255Z,6.63
2019-04-03T00:29:59.324Z,6.60
2019-04-03T00:32:49.335Z,7.13
2019-04-03T00:35:38.866Z,6.63
2019-04-03T00:38:29.020Z,7.30
2019-04-03T00:41:18.949Z,7.10
2019-04-03T00:44:08.928Z,8.03
2019-04-03T00:46:58.805Z,6.67
2019-04-03T00:49:48.827Z,8.13
2019-04-03T00:52:38.675Z,7.27
2019-04-03T00:55:28.238Z,6.97
2019-04-03T00:58:39.085Z,6.80
2019-04-03T01:01:28.956Z,8.67
2019-04-03T01:04:21.954Z,8.20
2019-04-03T01:07:11.773Z,7.70
2019-04-03T01:10:02.033Z,6.50
2019-04-03T01:12:53.752Z,7.10
2019-04-03T01:15:43.570Z,7.43
2019-04-03T01:18:35.298Z,8.53
2019-04-03T01:21:25.329Z,8.80
2019-04-03T01:24:15.489Z,8.57
2019-04-03T01:27:05.618Z,8.10
2019-04-03T01:29:55.945Z,8.30
2019-04-03T01:32:46.807Z,8.10
2019-04-03T01:35:37.239Z,6.90
2019-04-03T01:38:28.327Z,6.73
2019-04-03T01:41:20.218Z,7.87
2019-04-03T01:44:09.458Z,7.33
2019-04-03T01:46:59.362Z,8.73
2019-04-03T01:49:49.395Z,6.63
2019-04-03T01:52:39.174Z,7.50
2019-04-03T01:55:30.841Z,8.80
2019-04-03T01:58:20.374Z,8.20
2019-04-03T02:01:10.142Z,8.60
2019-04-03T02:04:00.020Z,6.60
2019-04-03T02:06:49.831Z,8.13
2019-04-03T02:09:40.085Z,7.43
2019-04-03T02:12:30.192Z,7.40
2019-04-03T02:15:21.696Z,7.70
2019-04-03T02:18:11.752Z,7.40
2019-04-03T02:21:01.960Z,7.30
2019-04-03T02:23:51.670Z,7.27
2019-04-03T02:26:41.655Z,7.10
2019-04-03T02:29:31.264Z,8.30
2019-04-03T02:32:23.137Z,8.30
2019-04-03T02:35:12.658Z,7.33
2019-04-03T02:38:02.645Z,9.17
2019-04-03T02:40:52.594Z,8.10
2019-04-03T02:43:45.437Z,8.77
2019-04-03T02:46:34.387Z,7.60
2019-04-03T02:49:23.807Z,7.90
2019-04-03T02:52:13.827Z,8.50
2019-04-03T02:55:06.725Z,8.83
2019-04-03T02:57:55.670Z,7.93
2019-04-03T03:00:45.749Z,8.43
2019-04-03T03:03:35.113Z,7.23
2019-04-03T03:06:25.216Z,7.77
2019-04-03T03:09:15.731Z,8.40
2019-04-03T03:12:05.644Z,8.27
2019-04-03T03:14:55.638Z,8.10
2019-04-03T03:17:46.196Z,8.43
2019-04-03T03:20:39.518Z,7.93
2019-04-03T03:23:29.529Z,8.40
2019-04-03T03:26:20.887Z,9.57
2019-04-03T03:29:17.665Z,8.30
2019-04-03T03:32:12.677Z,8.70
2019-04-03T03:35:07.615Z,7.37
2019-04-03T03:37:48.054Z,8.43
2019-04-03T03:40:39.368Z,8.73
2019-04-03T03:43:30.027Z,8.60
2019-04-03T03:46:20.269Z,8.60
2019-04-03T03:49:10.511Z,8.83
2019-04-03T03:52:04.515Z,10.37
2019-04-03T03:54:55.909Z,9.13
2019-04-03T03:57:46.256Z,10.67
2019-04-03T04:00:37.002Z,9.10
2019-04-03T04:03:27.091Z,8.70
2019-04-03T04:06:17.621Z,9.53
2019-04-03T04:09:08.509Z,9.00
2019-04-03T04:11:59.445Z,10.30
2019-04-03T04:14:49.824Z,9.93
2019-04-03T04:17:40.625Z,9.10
2019-04-03T04:20:31.229Z,10.27
2019-04-03T04:23:24.513Z,9.23
2019-04-03T04:26:13.170Z,10.40
2019-04-03T04:29:03.410Z,11.07
2019-04-03T04:31:53.634Z,10.00
2019-04-03T04:34:43.803Z,10.33
2019-04-03T04:37:33.231Z,9.53
2019-04-03T04:40:24.190Z,9.97
2019-04-03T04:43:13.678Z,9.90
2019-04-03T04:46:03.326Z,10.50
2019-04-03T04:48:53.118Z,11.23
2019-04-03T04:51:42.710Z,9.70
2019-04-03T04:54:32.769Z,9.63
2019-04-03T04:57:22.133Z,9.83
2019-04-03T05:00:13.658Z,10.40
2019-04-03T05:03:03.983Z,10.47
2019-04-03T05:05:54.082Z,11.00
2019-04-03T05:08:44.175Z,10.90
2019-04-03T05:11:34.340Z,9.63
2019-04-03T05:14:24.156Z,9.67
2019-04-03T05:17:14.395Z,10.57
2019-04-03T05:20:05.547Z,10.70
2019-04-03T05:22:55.746Z,10.40
2019-04-03T05:25:45.939Z,10.50
2019-04-03T05:28:35.794Z,10.60
2019-04-03T05:31:25.779Z,10.47
2019-04-03T05:34:17.731Z,11.13
2019-04-03T05:37:07.249Z,10.83
2019-04-03T05:39:56.858Z,11.43
2019-04-03T05:42:46.941Z,9.47
2019-04-03T05:45:37.012Z,10.17
2019-04-03T05:48:26.762Z,10.87
2019-04-03T05:51:16.666Z,10.70
2019-04-03T05:54:07.985Z,10.33
2019-04-03T05:56:58.334Z,11.30
2019-04-03T05:59:58.674Z,11.67
2019-04-03T06:02:39.467Z,11.90
2019-04-03T06:05:29.025Z,13.20
2019-04-03T06:08:19.950Z,14.23
2019-04-03T06:11:10.283Z,13.10
2019-04-03T06:14:00.094Z,14.57
2019-04-03T06:16:50.160Z,12.93
2019-04-03T06:19:40.283Z,15.17
2019-04-03T06:22:30.704Z,14.03
2019-04-03T06:25:20.938Z,14.97
2019-04-03T06:28:12.613Z,18.00
2019-04-03T06:31:02.579Z,16.37
2019-04-03T06:33:52.504Z,15.10
2019-04-03T06:36:42.905Z,14.30
2019-04-03T06:39:32.948Z,14.43
2019-04-03T06:42:22.796Z,15.03
2019-04-03T06:45:15.566Z,15.00
2019-04-03T06:48:05.547Z,14.20
2019-04-03T06:50:55.934Z,12.60
2019-04-03T06:53:45.964Z,16.97
2019-04-03T06:56:35.926Z,15.20
2019-04-03T06:59:26.568Z,15.57
2019-04-03T07:02:16.250Z,14.83
2019-04-03T07:05:06.293Z,15.70
2019-04-03T07:07:56.337Z,15.80
2019-04-03T07:10:55.179Z,17.67
2019-04-03T07:13:37.959Z,14.93
2019-04-03T07:16:28.881Z,16.63
2019-04-03T07:19:19.232Z,16.20
2019-04-03T07:22:08.665Z,17.47
2019-04-03T07:24:58.826Z,16.73
2019-04-03T07:27:48.627Z,15.97
2019-04-03T07:30:38.462Z,14.20
2019-04-03T07:33:28.720Z,14.77
2019-04-03T07:36:19.312Z,15.50
2019-04-03T07:39:11.127Z,14.23
2019-04-03T07:42:01.198Z,13.70
2019-04-03T07:44:50.978Z,13.93
2019-04-03T07:47:40.937Z,18.87
2019-04-03T07:50:31.315Z,14.47
2019-04-03T07:53:21.862Z,14.10
2019-04-03T07:56:11.587Z,14.90
2019-04-03T07:59:03.250Z,15.30
2019-04-03T08:01:52.513Z,14.97
2019-04-03T08:04:42.476Z,18.00
2019-04-03T08:07:32.188Z,18.50
2019-04-03T08:10:22.097Z,17.30
2019-04-03T08:13:12.332Z,15.90
2019-04-03T08:16:02.331Z,15.13
2019-04-03T08:18:52.532Z,17.40
2019-04-03T08:21:42.264Z,15.40
2019-04-03T08:24:31.753Z,16.03
2019-04-03T08:27:23.447Z,13.23
2019-04-03T08:30:14.609Z,13.33
2019-04-03T08:33:15.223Z,15.00
2019-04-03T08:35:55.375Z,15.47
2019-04-03T08:38:46.623Z,14.33
2019-04-03T08:41:37.921Z,15.10
2019-04-03T08:44:29.578Z,14.23
2019-04-03T08:47:20.750Z,14.70
2019-04-03T08:50:13.291Z,17.63
2019-04-03T08:53:07.414Z,16.47
2019-04-03T08:55:58.271Z,15.13
2019-04-03T08:58:50.748Z,15.57
2019-04-03T09:01:40.962Z,17.00
2019-04-03T09:04:30.823Z,19.10
2019-04-03T09:07:20.943Z,17.80
2019-04-03T09:10:13.101Z,18.73
2019-04-03T09:13:15.436Z,17.23
2019-04-03T09:15:53.965Z,17.03
2019-04-03T09:18:44.174Z,18.97
2019-04-03T09:21:34.399Z,18.03
2019-04-03T09:24:24.191Z,15.63
2019-04-03T09:27:14.011Z,13.43
2019-04-03T09:30:06.167Z,15.30
2019-04-03T09:32:59.010Z,15.30
2019-04-03T09:35:48.909Z,16.90
2019-04-03T09:38:40.718Z,15.27
2019-04-03T09:41:30.541Z,14.10
2019-04-03T09:44:20.687Z,14.87
2019-04-03T09:47:10.721Z,16.13
2019-04-03T09:50:00.796Z,16.40
2019-04-03T09:52:54.241Z,13.90
2019-04-03T09:55:43.480Z,17.00
2019-04-03T09:58:35.625Z,16.17
2019-04-03T10:01:24.459Z,15.10
2019-04-03T10:04:17.030Z,13.47
2019-04-03T10:07:07.212Z,13.40
2019-04-03T10:09:57.045Z,15.60
2019-04-03T10:12:48.899Z,16.10
2019-04-03T10:15:38.670Z,15.20
2019-04-03T10:18:28.534Z,16.67
2019-04-03T10:21:19.882Z,15.90
2019-04-03T10:24:10.124Z,16.30
2019-04-03T10:27:00.306Z,15.00
2019-04-03T10:29:50.824Z,16.47
2019-04-03T10:32:41.446Z,17.13
2019-04-03T10:35:31.824Z,16.87
2019-04-03T10:38:22.013Z,16.10
2019-04-03T10:41:12.062Z,16.23
2019-04-03T10:44:01.891Z,16.77
2019-04-03T10:46:52.082Z,18.40
2019-04-03T10:49:41.727Z,16.60
2019-04-03T10:52:32.769Z,14.70
2019-04-03T10:55:22.814Z,15.10
2019-04-03T10:58:12.359Z,16.73
2019-04-03T11:01:02.186Z,17.33
2019-04-03T11:03:52.076Z,18.03
2019-04-03T11:06:42.251Z,20.03
2019-04-03T11:09:33.412Z,16.57
2019-04-03T11:12:23.301Z,15.50
2019-04-03T11:15:14.181Z,15.33
2019-04-03T11:18:04.883Z,14.50
2019-04-03T11:20:54.519Z,17.23
2019-04-03T11:23:45.573Z,14.60
2019-04-03T11:26:35.279Z,17.57
2019-04-03T11:29:24.989Z,17.03
2019-04-03T11:32:15.096Z,16.20
2019-04-03T11:35:05.591Z,13.67
2019-04-03T11:37:56.186Z,13.90
2019-04-03T11:40:49.359Z,13.17
2019-04-03T11:43:37.859Z,13.83
2019-04-03T11:46:27.868Z,14.27
2019-04-03T11:49:20.106Z,14.70
2019-04-03T11:52:10.495Z,15.70
2019-04-03T11:55:00.902Z,18.93
2019-04-03T11:57:51.405Z,17.17
2019-04-03T12:00:46.446Z,14.70
2019-04-03T12:03:36.436Z,16.63
2019-04-03T12:06:26.500Z,17.30
2019-04-03T12:09:16.838Z,16.90
2019-04-03T12:12:08.950Z,18.10
2019-04-03T12:14:57.747Z,15.97
2019-04-03T12:17:47.823Z,16.20
2019-04-03T12:20:50.390Z,17.30
2019-04-03T12:23:40.660Z,18.77
2019-04-03T12:26:30.303Z,18.27
2019-04-03T12:29:21.523Z,17.33
2019-04-03T12:32:10.996Z,18.27
2019-04-03T12:35:01.513Z,19.60
2019-04-03T12:37:51.305Z,17.90
2019-04-03T12:40:41.303Z,19.17
2019-04-03T12:43:31.119Z,19.10
2019-04-03T12:46:37.356Z,20.10
2019-04-03T12:49:28.119Z,19.63
2019-04-03T12:52:17.814Z,18.87
2019-04-03T12:55:08.115Z,19.90
2019-04-03T12:57:58.268Z,18.57
2019-04-03T13:00:49.104Z,20.60
2019-04-03T13:03:39.481Z,16.70
2019-04-03T13:06:29.601Z,17.50
2019-04-03T13:09:19.537Z,15.50
2019-04-03T13:12:09.704Z,15.70
2019-04-03T13:14:59.787Z,15.97
2019-04-03T13:17:50.011Z,17.90
2019-04-03T13:20:39.860Z,16.63
2019-04-03T13:23:30.260Z,17.03
2019-04-03T13:26:20.137Z,16.83
2019-04-03T13:29:09.682Z,19.50
2019-04-03T13:31:59.653Z,16.97
2019-04-03T13:34:50.406Z,16.40
2019-04-03T13:37:40.198Z,15.77
2019-04-03T13:40:31.000Z,15.53
2019-04-03T13:43:22.333Z,16.70
2019-04-03T13:46:13.327Z,18.17
2019-04-03T13:49:03.596Z,16.97
2019-04-03T13:51:57.992Z,17.43
2019-04-03T13:54:46.319Z,18.87
2019-04-03T13:57:36.299Z,17.33
2019-04-03T14:00:26.589Z,18.07
2019-04-03T14:03:18.605Z,18.00
2019-04-03T14:06:08.579Z,15.80
2019-04-03T14:08:58.547Z,18.33
2019-04-03T14:11:47.946Z,16.87
2019-04-03T14:14:37.559Z,15.97
2019-04-03T14:17:28.238Z,15.90
2019-04-03T14:20:18.852Z,16.63
2019-04-03T14:23:09.140Z,16.83
2019-04-03T14:26:06.121Z,18.60
2019-04-03T14:28:50.930Z,17.70
2019-04-03T14:31:40.641Z,16.60
2019-04-03T14:34:31.208Z,18.67
2019-04-03T14:37:25.498Z,19.33
2019-04-03T14:40:13.646Z,18.17
2019-04-03T14:43:04.038Z,19.00
2019-04-03T14:45:53.871Z,18.17
2019-04-03T14:48:43.839Z,18.10
2019-04-03T14:51:33.742Z,15.80
2019-04-03T14:54:25.085Z,17.33
2019-04-03T14:57:20.862Z,18.93
2019-04-03T15:00:23.358Z,15.60
2019-04-03T15:02:58.555Z,17.37
2019-04-03T15:05:48.055Z,21.13
2019-04-03T15:08:37.921Z,15.20
2019-04-03T15:11:28.202Z,15.37
2019-04-03T15:14:21.859Z,15.97
2019-04-03T15:17:10.716Z,17.40
2019-04-03T15:20:00.692Z,18.83
2019-04-03T15:22:50.670Z,19.30
2019-04-03T15:25:42.620Z,16.00
2019-04-03T15:28:32.414Z,16.07
2019-04-03T15:31:24.388Z,14.60
2019-04-03T15:34:15.004Z,16.10
2019-04-03T15:37:06.139Z,16.40
2019-04-03T15:39:58.396Z,17.57
2019-04-03T15:42:49.231Z,17.27
2019-04-03T15:45:38.918Z,18.30
2019-04-03T15:48:29.043Z,17.60
2019-04-03T15:51:18.564Z,18.57
2019-04-03T15:54:08.362Z,16.00
2019-04-03T15:56:58.860Z,16.10
2019-04-03T15:59:51.692Z,20.37
2019-04-03T16:02:44.530Z,18.23
2019-04-03T16:05:35.705Z,20.37
2019-04-03T16:08:24.889Z,18.30
2019-04-03T16:11:14.968Z,19.40
2019-04-03T16:14:06.425Z,19.90
2019-04-03T16:16:56.161Z,18.23
2019-04-03T16:19:46.367Z,18.40
2019-04-03T16:22:36.905Z,19.30
2019-04-03T16:25:26.630Z,16.70
2019-04-03T16:28:16.573Z,16.53
2019-04-03T16:31:06.649Z,16.80
2019-04-03T16:33:57.153Z,16.30
2019-04-03T16:36:48.735Z,17.30
2019-04-03T16:39:39.181Z,19.83
2019-04-03T16:42:29.273Z,19.27
2019-04-03T16:45:19.493Z,15.70
2019-04-03T16:48:09.487Z,17.43
2019-04-03T16:51:00.694Z,15.37
2019-04-03T16:53:52.051Z,15.43
2019-04-03T16:56:42.094Z,15.23
2019-04-03T16:59:35.438Z,17.43
2019-04-03T17:02:24.766Z,17.97
2019-04-03T17:05:15.549Z,16.90
2019-04-03T17:08:06.425Z,16.37
2019-04-03T17:10:56.564Z,14.27
2019-04-03T17:13:46.985Z,15.37
2019-04-03T17:16:39.125Z,16.10
2019-04-03T17:19:29.576Z,15.20
2019-04-03T17:22:19.942Z,15.20
2019-04-03T17:25:10.913Z,16.53
2019-04-03T17:28:05.996Z,16.90
2019-04-03T17:30:52.454Z,17.60
2019-04-03T17:33:42.569Z,15.57
2019-04-03T17:36:32.419Z,15.67
2019-04-03T17:39:22.130Z,15.63
2019-04-03T17:42:12.461Z,15.10
2019-04-03T17:45:02.470Z,15.13
2019-04-03T17:47:54.009Z,13.60
2019-04-03T17:50:45.371Z,16.83
2019-04-03T17:53:36.662Z,14.20
2019-04-03T17:56:28.090Z,14.47
2019-04-03T17:59:19.038Z,16.37
2019-04-03T18:02:09.027Z,14.37
2019-04-03T18:04:59.126Z,14.93
2019-04-03T18:07:49.184Z,15.20
2019-04-03T18:10:38.993Z,13.77
2019-04-03T18:13:28.510Z,14.83
2019-04-03T18:16:17.701Z,16.77
2019-04-03T18:19:07.662Z,15.57
2019-04-03T18:21:57.642Z,15.30
2019-04-03T18:24:47.735Z,16.50
2019-04-03T18:27:38.179Z,15.90
2019-04-03T18:30:28.572Z,16.30
2019-04-03T18:33:19.180Z,17.77
2019-04-03T18:36:09.272Z,17.13
2019-04-03T18:38:58.911Z,17.37
2019-04-03T18:41:48.768Z,14.93
2019-04-03T18:44:38.886Z,17.50
2019-04-03T18:47:40.426Z,15.13
2019-04-03T18:50:20.364Z,17.40
2019-04-03T18:53:10.378Z,13.90
2019-04-03T18:56:00.417Z,15.63
2019-04-03T18:58:49.710Z,16.33
2019-04-03T19:01:39.313Z,26.63
2019-04-03T19:04:29.084Z,54.03
2019-04-03T19:07:20.197Z,19.60
2019-04-03T19:10:11.171Z,29.40
2019-04-03T19:13:01.463Z,17.13
2019-04-03T19:15:51.411Z,17.53
2019-04-03T19:18:41.282Z,16.70
2019-04-03T19:21:31.393Z,15.83
2019-04-03T19:24:20.847Z,15.73
2019-04-03T19:27:10.626Z,18.77
2019-04-03T19:30:00.468Z,17.47
2019-04-03T19:32:50.703Z,16.47
2019-04-03T19:35:41.104Z,15.60
2019-04-03T19:38:30.822Z,15.27
2019-04-03T19:41:20.673Z,15.60
2019-04-03T19:44:10.715Z,15.40
2019-04-03T19:47:00.618Z,16.47
2019-04-03T19:49:50.583Z,15.93
2019-04-03T19:52:42.154Z,14.93
2019-04-03T19:55:32.121Z,26.03
2019-04-03T19:58:22.386Z,16.53
2019-04-03T20:01:11.884Z,15.40
2019-04-03T20:04:01.498Z,15.13
2019-04-03T20:06:52.959Z,16.67
2019-04-03T20:09:43.103Z,15.53
2019-04-03T20:12:33.164Z,15.10
2019-04-03T20:15:23.398Z,15.23
2019-04-03T20:18:13.308Z,16.77
2019-04-03T20:21:03.890Z,16.93
2019-04-03T20:23:54.083Z,15.93
2019-04-03T20:26:46.384Z,16.40
2019-04-03T20:29:35.671Z,18.77
2019-04-03T20:32:25.730Z,16.23
2019-04-03T20:35:18.035Z,15.00
2019-04-03T20:38:06.644Z,15.33
2019-04-03T20:40:56.531Z,17.40
2019-04-03T20:43:47.316Z,16.10
2019-04-03T20:46:37.607Z,16.10
2019-04-03T20:49:27.330Z,16.00
2019-04-03T20:52:17.319Z,13.43
2019-04-03T20:55:08.216Z,15.40
2019-04-03T20:57:58.036Z,13.97
2019-04-03T21:00:51.511Z,15.60
2019-04-03T21:03:39.410Z,17.77
2019-04-03T21:06:29.272Z,14.50
2019-04-03T21:09:19.346Z,14.30
2019-04-03T21:12:09.129Z,14.10
2019-04-03T21:15:08.150Z,14.43
2019-04-03T21:17:50.604Z,17.30
2019-04-03T21:20:40.439Z,15.63
2019-04-03T21:23:33.322Z,14.00
2019-04-03T21:26:22.534Z,14.27
2019-04-03T21:29:12.640Z,13.97
2019-04-03T21:32:02.782Z,13.10
2019-04-03T21:34:52.895Z,13.30
2019-04-03T21:37:42.675Z,14.87
2019-04-03T21:40:32.715Z,14.50
2019-04-03T21:43:22.170Z,13.73
2019-04-03T21:46:11.974Z,13.73
2019-04-03T21:49:01.752Z,13.50
2019-04-03T21:51:52.357Z,14.87
2019-04-03T21:54:42.529Z,12.83
2019-04-03T21:57:31.976Z,12.27
2019-04-03T22:01:09.057Z,13.23
2019-04-03T22:03:59.273Z,15.07
2019-04-03T22:06:49.123Z,13.90
2019-04-03T22:09:39.102Z,13.93
2019-04-03T22:12:28.988Z,13.90
2019-04-03T22:15:19.062Z,15.23
2019-04-03T22:18:09.566Z,13.60
2019-04-03T22:20:59.918Z,13.80
2019-04-03T22:23:51.699Z,14.00
2019-04-03T22:26:41.648Z,13.63
2019-04-03T22:29:31.247Z,12.40
2019-04-03T22:32:21.020Z,12.13
2019-04-03T22:35:10.976Z,13.50
2019-04-03T22:38:01.003Z,11.90
2019-04-03T22:40:51.021Z,12.03
2019-04-03T22:43:41.159Z,13.30
2019-04-03T22:46:30.837Z,13.00
2019-04-03T22:49:20.527Z,12.60
2019-04-03T22:52:10.632Z,14.40
2019-04-03T22:55:00.530Z,13.50
2019-04-03T22:57:50.611Z,12.43
2019-04-03T23:00:40.934Z,14.43
2019-04-03T23:03:31.995Z,12.87
2019-04-03T23:06:22.796Z,13.77
2019-04-03T23:09:13.066Z,13.43
2019-04-03T23:12:03.025Z,13.80
2019-04-03T23:14:53.175Z,13.00
2019-04-03T23:17:42.895Z,12.93
2019-04-03T23:20:34.650Z,12.93
2019-04-03T23:23:27.048Z,12.07
2019-04-03T23:26:15.151Z,13.33
2019-04-03T23:29:05.259Z,12.80
2019-04-03T23:31:55.690Z,12.40
2019-04-03T23:34:45.260Z,12.10
2019-04-03T23:37:35.442Z,12.67
2019-04-03T23:40:25.283Z,13.43
2019-04-03T23:43:15.093Z,13.60
2019-04-03T23:46:05.213Z,13.30
2019-04-03T23:48:54.955Z,13.70
2019-04-03T23:51:45.029Z,13.40
2019-04-03T23:54:35.007Z,15.10
2019-04-03T23:57:25.266Z,14.40
